Date,TemperatureHighF,TemperatureAvgF,TemperatureLowF,DewpointHighF,DewpointAvgF,DewpointLowF,HumidityHigh,HumidityAvg,HumidityLow,PressureMaxIn,PressureMinIn,WindSpeedMaxMPH,WindSpeedAvgMPH,GustSpeedMaxMPH,PrecipitationSumIn
2013-1-1,79.0,68.8,61.0,63.0,60.7,58.0,96,78,51,0.00,40.00,14,5,21,0.00
2013-1-2,83.0,69.4,60.0,69.0,62.8,59.0,99,82,47,0.00,40.00,8,4,14,0.00
2013-1-3,84.0,71.3,63.0,69.0,64.4,62.0,99,82,50,0.00,40.00,9,4,18,0.00
2013-1-4,81.0,70.2,62.0,70.0,65.7,62.0,99,87,62,0.00,40.00,7,4,12,0.00
2013-1-5,75.0,68.3,65.0,69.0,65.9,64.0,99,92,76,0.00,40.00,7,4,18,0.00
2013-1-6,82.0,71.6,64.0,72.0,67.4,64.0,100,88,63,0.00,40.00,11,5,18,0.01
2013-1-7,75.0,70.2,66.0,70.0,67.7,65.0,99,92,77,0.00,40.00,9,5,13,0.00
2013-1-8,84.0,74.2,68.0,72.0,69.4,67.0,99,86,57,0.00,40.00,13,6,20,0.00
2013-1-9,83.0,75.4,71.0,71.0,69.4,68.0,98,83,63,0.00,40.00,14,8,22,0.00
2013-1-10,81.0,73.2,67.0,69.0,65.8,63.0,96,80,56,0.00,40.00,16,8,26,0.00
2013-1-11,81.0,72.4,66.0,70.0,67.0,65.0,98,84,63,0.00,40.00,13,6,20,0.00
2013-1-12,81.0,72.9,67.0,69.0,66.6,63.0,95,82,57,0.00,40.00,11,6,19,0.03
2013-1-13,82.0,72.5,66.0,68.0,65.4,62.0,97,81,52,0.00,40.00,13,6,21,0.01
2013-1-14,81.0,71.6,64.0,68.0,64.5,60.0,98,81,52,0.00,40.00,11,5,18,0.01
2013-1-15,77.0,69.9,65.0,70.0,66.0,64.0,98,89,69,0.00,40.00,9,4,15,0.02
2013-1-16,82.0,71.3,62.0,69.0,65.5,61.0,98,84,57,0.00,40.00,11,4,15,0.01
2013-1-17,79.0,70.1,59.0,71.0,64.5,52.0,98,84,63,0.00,40.00,19,7,30,0.01
2013-1-18,72.0,60.9,52.0,59.0,52.0,45.0,89,73,56,0.00,40.00,12,7,19,0.00
2013-1-19,73.0,65.7,61.0,67.0,62.9,58.0,98,91,77,0.00,40.00,9,4,14,0.03
2013-1-20,81.0,69.1,60.0,68.0,63.9,60.0,99,85,58,0.00,40.00,9,4,14,0.01
2013-1-21,81.0,70.4,63.0,71.0,65.2,62.0,99,85,56,0.00,40.00,10,4,17,0.00
2013-1-22,76.0,65.2,58.0,62.0,57.2,53.0,99,77,52,0.00,40.00,14,8,22,0.00
2013-1-23,75.0,63.5,57.0,57.0,54.2,51.0,93,74,43,0.00,40.00,11,6,18,0.00
2013-1-24,75.0,63.0,53.0,56.0,50.1,41.0,94,67,32,0.00,40.00,8,5,16,0.00
2013-1-25,77.0,63.5,53.0,59.0,54.5,51.0,96,76,48,0.00,40.00,9,6,13,0.00
2013-1-26,79.0,65.1,55.0,61.0,55.1,52.0,97,75,39,0.00,40.00,8,5,13,0.00
2013-1-27,80.0,67.6,58.0,62.0,58.0,55.0,95,75,43,0.00,40.00,11,6,20,0.00
2013-1-28,81.0,70.7,62.0,66.0,62.1,59.0,96,77,49,0.00,40.00,13,7,20,0.00
2013-1-29,82.0,71.5,63.0,70.0,65.7,62.0,99,83,61,0.00,40.00,14,6,21,0.00
2013-1-30,81.0,71.9,64.0,67.0,64.3,62.0,97,79,54,0.00,40.00,15,8,25,0.00
2013-1-31,68.0,62.7,54.0,66.0,52.6,43.0,94,71,58,0.00,40.00,13,8,24,0.00
2013-2-1,72.0,58.9,47.0,53.0,45.7,37.0,79,62,49,0.00,40.00,14,10,23,0.00
2013-2-2,75.0,61.8,51.0,56.0,47.1,37.0,95,61,39,0.00,40.00,9,6,18,0.00
2013-2-3,74.0,60.1,52.0,55.0,47.5,31.0,97,70,21,0.00,40.00,12,6,19,0.00
2013-2-4,75.0,59.5,47.0,57.0,47.1,40.0,96,69,30,0.00,40.00,11,5,22,0.00
2013-2-5,81.0,64.6,51.0,62.0,54.9,49.0,97,75,36,0.00,40.00,7,4,13,0.00
2013-2-6,82.0,68.0,57.0,65.0,61.0,57.0,99,81,49,0.00,40.00,9,4,14,0.00
2013-2-7,83.0,70.7,60.0,66.0,61.5,57.0,99,76,42,0.00,40.00,10,5,16,0.00
2013-2-8,83.0,70.7,61.0,69.0,64.6,56.0,99,83,55,0.00,40.00,11,6,18,0.00
2013-2-9,79.0,68.3,59.0,65.0,61.4,56.0,99,80,54,0.00,40.00,11,7,19,0.00
2013-2-10,75.0,68.5,61.0,63.0,61.0,59.0,96,78,62,0.00,40.00,14,8,23,0.00
2013-2-11,80.0,69.5,61.0,65.0,62.8,60.0,98,81,58,0.00,40.00,12,7,20,0.00
2013-2-12,86.0,72.0,61.0,70.0,64.1,61.0,100,80,44,0.00,40.00,10,5,17,0.00
2013-2-13,86.0,74.2,65.0,72.0,67.6,65.0,100,82,53,0.00,40.00,14,8,24,0.00
2013-2-14,81.0,67.8,61.0,72.0,65.8,60.0,100,94,69,0.00,40.00,20,7,43,1.77
2013-2-15,71.0,65.1,62.0,66.0,63.2,60.0,99,94,71,0.00,40.00,11,5,20,0.79
2013-2-16,72.0,63.7,53.0,63.0,56.3,45.0,99,79,44,0.00,40.00,18,10,39,0.02
2013-2-17,57.0,50.5,44.0,45.0,30.8,20.0,79,49,28,0.00,40.00,20,11,36,0.00
2013-2-18,69.0,57.1,45.0,55.0,41.8,27.0,94,58,41,0.00,40.00,14,9,26,0.00
2013-2-19,80.0,68.3,55.0,66.0,60.3,54.0,98,78,52,0.00,40.00,13,6,19,0.00
2013-2-20,80.0,69.6,61.0,66.0,62.7,58.0,100,82,47,0.00,40.00,9,4,14,0.01
2013-2-21,82.0,71.6,62.0,68.0,64.4,62.0,100,81,52,0.00,40.00,10,5,16,0.00
2013-2-22,82.0,73.9,66.0,71.0,67.9,65.0,99,83,62,0.00,40.00,13,8,19,0.00
2013-2-23,86.0,74.7,67.0,72.0,68.6,66.0,99,83,51,0.00,40.00,12,7,24,0.14
2013-2-24,89.0,76.7,68.0,75.0,68.1,63.0,100,79,44,0.00,40.00,8,5,18,0.04
2013-2-25,84.0,74.4,67.0,73.0,69.0,65.0,100,85,54,0.00,40.00,10,5,19,0.01
2013-2-26,85.0,76.3,71.0,73.0,70.1,68.0,99,83,56,0.00,40.00,17,9,30,0.01
2013-2-27,74.0,69.2,64.0,72.0,64.4,60.0,99,86,62,0.00,40.00,9,5,15,0.79
2013-2-28,70.0,63.2,59.0,63.0,54.9,44.0,98,76,41,0.00,40.00,10,7,18,0.67
2013-3-1,63.0,60.3,56.0,58.0,51.3,46.0,91,73,57,0.00,40.00,9,6,19,0.00
2013-3-2,63.0,56.6,49.0,49.0,42.2,34.0,78,60,37,0.00,40.00,21,9,30,0.00
2013-3-3,61.0,52.7,46.0,47.0,41.0,36.0,88,67,44,0.00,40.00,16,8,23,0.00
2013-3-4,68.0,53.6,41.0,49.0,37.2,30.0,88,58,26,0.00,40.00,13,6,21,0.00
2013-3-5,79.0,62.5,50.0,56.0,51.7,47.0,97,73,33,0.00,40.00,9,4,17,0.00
2013-3-6,77.0,62.5,49.0,61.0,49.6,28.0,99,69,26,0.00,40.00,19,10,30,0.00
2013-3-7,70.0,56.2,44.0,55.0,42.6,35.0,98,63,35,0.00,40.00,11,6,17,0.00
2013-3-8,76.0,61.4,48.0,55.0,47.1,36.0,99,68,23,0.00,40.00,10,6,15,0.00
2013-3-9,75.0,62.6,50.0,59.0,53.2,49.0,98,75,43,0.00,40.00,12,6,19,0.00
2013-3-10,76.0,67.4,57.0,60.0,56.1,52.0,96,70,44,0.00,40.00,14,7,24,0.00
2013-3-11,78.0,69.1,62.0,62.0,59.5,55.0,96,74,45,0.00,40.00,13,8,19,0.00
2013-3-12,80.0,70.2,61.0,67.0,63.8,60.0,98,81,59,0.00,40.00,16,7,25,0.00
2013-3-13,75.0,64.1,54.0,65.0,53.3,42.0,97,72,34,0.00,40.00,12,8,22,0.00
2013-3-14,72.0,59.0,50.0,56.0,44.4,34.0,94,64,27,0.00,40.00,12,8,20,0.00
2013-3-15,73.0,59.2,47.0,56.0,47.7,42.0,96,70,33,0.00,40.00,10,6,21,0.00
2013-3-16,77.0,63.5,50.0,60.0,52.6,48.0,100,73,36,0.00,40.00,10,4,17,0.00
2013-3-17,77.0,66.2,56.0,62.0,57.1,55.0,99,76,49,0.00,40.00,12,6,21,0.00
2013-3-18,80.0,69.1,61.0,69.0,64.1,60.0,100,86,59,0.00,40.00,13,7,21,1.78
2013-3-19,79.0,71.4,66.0,69.0,66.7,65.0,100,87,64,0.00,40.00,13,4,29,1.72
2013-3-20,83.0,71.5,62.0,71.0,64.3,57.0,100,81,51,0.00,40.00,15,5,26,0.01
2013-3-21,72.0,65.3,59.0,63.0,52.2,36.0,99,69,27,0.00,40.00,11,7,20,0.01
2013-3-22,76.0,67.5,58.0,69.0,60.9,58.0,100,81,55,0.00,40.00,12,6,21,0.03
2013-3-23,89.0,77.3,70.0,74.0,68.6,64.0,100,78,44,0.00,40.00,13,6,23,0.05
2013-3-24,88.0,78.0,71.0,74.0,70.6,67.0,100,80,52,0.00,40.00,20,11,34,0.17
2013-3-25,76.0,71.0,59.0,73.0,59.8,44.0,100,72,37,0.00,40.00,14,8,23,0.17
2013-3-26,65.0,58.3,48.0,46.0,39.2,32.0,69,51,34,0.00,40.00,19,13,34,0.00
2013-3-27,66.0,53.9,44.0,41.0,36.4,32.0,85,55,29,0.00,40.00,13,9,22,0.00
2013-3-28,73.0,66.4,56.0,50.0,43.4,36.0,78,47,26,0.00,40.00,11,5,20,0.00
2013-3-29,76.0,62.5,50.0,57.0,49.8,46.0,97,68,36,0.00,40.00,10,6,18,0.00
2013-3-30,76.0,65.6,55.0,59.0,53.1,47.0,98,69,37,0.00,40.00,10,6,17,0.00
2013-3-31,81.0,68.7,57.0,66.0,59.1,-99.9,100,78,49,0.00,40.00,12,7,23,0.00
2013-4-1,87.0,73.6,63.0,72.0,63.6,58.0,100,76,40,0.00,40.00,14,7,23,0.00
2013-4-2,86.0,72.6,63.0,68.0,63.9,60.0,100,78,41,0.00,40.00,9,6,23,0.00
2013-4-3,84.0,74.3,66.0,71.0,66.3,63.0,100,79,50,0.00,40.00,13,7,28,0.00
2013-4-4,86.0,73.6,67.0,71.0,68.8,65.0,100,87,55,0.00,40.00,16,7,25,0.13
2013-4-5,70.0,67.6,63.0,69.0,66.2,58.0,100,95,85,0.00,40.00,12,8,20,0.62
2013-4-6,79.0,67.1,57.0,63.0,59.4,56.0,97,78,55,0.00,40.00,12,9,25,0.11
2013-4-7,79.0,70.6,63.0,65.0,62.1,59.0,99,77,57,0.00,40.00,13,6,19,0.00
2013-4-8,83.0,72.2,62.0,66.0,60.9,52.0,98,72,34,0.00,40.00,11,6,18,0.00
2013-4-9,81.0,72.7,66.0,70.0,65.9,62.0,99,81,54,0.00,40.00,12,7,21,0.00
2013-4-10,84.0,76.2,67.0,72.0,68.7,66.0,98,80,59,0.00,40.00,14,9,24,0.00
2013-4-11,86.0,78.0,72.0,74.0,70.8,69.0,96,80,58,0.00,40.00,17,11,25,0.01
2013-4-12,89.0,79.5,75.0,75.0,72.6,70.0,95,81,55,0.00,40.00,13,7,21,0.03
2013-4-13,86.0,75.5,70.0,75.0,71.8,69.0,99,89,65,0.00,40.00,12,6,20,1.07
2013-4-14,88.0,78.8,71.0,76.0,71.7,69.0,100,81,53,0.00,40.00,13,8,21,0.46
2013-4-15,90.0,77.4,68.0,74.0,71.2,67.0,100,84,50,0.00,40.00,19,6,33,1.62
2013-4-16,87.0,78.2,71.0,75.0,72.0,71.0,99,82,61,0.00,40.00,13,8,20,0.98
2013-4-17,84.0,76.9,71.0,71.0,67.7,63.0,97,75,53,0.00,40.00,11,7,19,0.00
2013-4-18,88.0,78.3,71.0,72.0,69.2,66.0,98,76,51,0.00,40.00,13,8,21,0.00
2013-4-19,88.0,80.4,74.0,74.0,70.8,67.0,93,74,52,0.00,40.00,15,9,25,0.00
2013-4-20,90.0,78.2,72.0,75.0,71.6,67.0,97,82,48,0.00,40.00,21,6,38,0.07
2013-4-21,86.0,75.9,69.0,72.0,69.6,68.0,98,83,58,0.00,40.00,13,7,20,0.07
2013-4-22,85.0,74.4,69.0,71.0,69.1,66.0,98,86,54,0.00,40.00,14,6,29,0.08
2013-4-23,83.0,74.2,66.0,70.0,64.9,61.0,99,76,52,0.00,40.00,14,9,24,0.08
2013-4-24,84.0,74.0,63.0,66.0,63.0,60.0,97,72,46,0.00,40.00,11,6,18,0.00
2013-4-25,84.0,74.6,66.0,67.0,63.3,59.0,97,71,46,0.00,40.00,11,6,19,0.00
2013-4-26,83.0,73.9,64.0,68.0,63.9,60.0,97,74,46,0.00,40.00,15,7,23,0.00
2013-4-27,82.0,74.7,66.0,68.0,63.6,58.0,94,71,44,0.00,40.00,13,8,25,0.00
2013-4-28,83.0,75.0,68.0,67.0,61.5,-99.9,91,68,47,0.00,40.00,13,8,24,0.00
2013-4-29,84.0,74.5,67.0,71.0,68.1,66.0,96,82,60,0.00,40.00,13,7,21,0.01
2013-4-30,84.0,75.1,70.0,72.0,69.3,67.0,99,84,57,0.00,40.00,14,4,25,0.01
2013-5-1,85.0,74.1,69.0,74.0,69.6,67.0,99,88,55,0.00,40.00,10,5,21,1.02
2013-5-2,79.0,71.1,68.0,72.0,69.2,68.0,99,94,78,0.00,40.00,11,6,20,0.29
2013-5-3,87.0,74.1,67.0,70.0,67.6,65.0,99,83,50,0.00,40.00,11,6,21,0.28
2013-5-4,87.0,75.3,66.0,70.0,67.0,65.0,99,78,48,0.00,40.00,13,7,27,0.07
2013-5-5,80.0,71.7,64.0,67.0,61.9,52.0,98,75,39,0.00,40.00,14,7,24,0.05
2013-5-6,82.0,70.2,58.0,67.0,60.6,56.0,96,74,46,0.00,40.00,8,5,16,0.04
2013-5-7,83.0,69.9,61.0,63.0,59.4,55.0,98,73,42,0.00,40.00,11,6,21,0.05
2013-5-8,85.0,72.3,60.0,67.0,59.2,53.0,97,68,34,0.00,40.00,7,5,15,0.03
2013-5-9,89.0,75.0,62.0,74.0,64.9,60.0,97,75,41,0.00,40.00,10,4,18,0.02
2013-5-10,89.0,76.9,72.0,75.0,68.1,-99.9,99,81,49,0.00,40.00,12,6,40,0.49
2013-5-11,89.0,78.7,71.0,77.0,71.7,66.0,100,82,47,0.00,40.00,15,6,22,0.46
2013-5-12,89.0,77.7,71.0,76.0,69.9,-99.9,99,82,50,0.00,40.00,11,5,23,0.07
2013-5-13,84.0,76.7,69.0,72.0,68.9,65.0,99,79,55,0.00,40.00,11,6,19,0.09
2013-5-14,82.0,74.0,65.0,68.0,61.0,56.0,94,67,42,0.00,40.00,13,8,22,0.01
2013-5-15,82.0,73.1,64.0,65.0,61.6,57.0,94,70,43,0.00,40.00,13,6,22,0.00
2013-5-16,85.0,68.1,65.0,66.0,40.8,-99.9,95,68,41,0.00,40.00,11,6,17,0.00
2013-5-17,87.0,75.4,67.0,73.0,61.3,-99.9,97,79,48,0.00,40.00,11,5,19,0.00
2013-5-18,88.0,78.0,70.0,73.0,70.8,68.0,99,80,52,0.00,40.00,13,5,22,0.19
2013-5-19,88.0,78.0,70.0,72.0,68.8,64.0,99,76,48,0.00,40.00,11,6,19,0.01
2013-5-20,83.0,74.9,70.0,77.0,70.9,68.0,99,88,66,0.00,40.00,13,5,23,0.00
2013-5-21,87.0,76.2,68.0,72.0,69.4,67.0,98,81,56,0.00,40.00,15,7,23,0.02
2013-5-22,90.0,76.2,71.0,74.0,71.2,69.0,99,86,51,0.00,40.00,8,4,23,0.59
2013-5-23,91.0,79.8,70.0,76.0,70.6,65.0,99,77,43,0.00,40.00,9,5,16,0.26
2013-5-24,93.0,81.0,70.0,75.0,70.1,63.0,99,74,38,0.00,40.00,9,5,17,0.01
2013-5-25,86.0,79.0,71.0,74.0,67.9,64.0,96,72,48,0.00,40.00,14,8,22,0.00
2013-5-26,86.0,75.8,65.0,68.0,64.4,62.0,95,71,46,0.00,40.00,12,7,22,0.00
2013-5-27,85.0,76.3,66.0,72.0,67.7,64.0,94,76,58,0.00,40.00,15,9,22,0.00
2013-5-28,84.0,76.7,73.0,74.0,71.8,69.0,95,86,65,0.00,40.00,15,9,24,0.56
2013-5-29,81.0,74.6,71.0,74.0,70.9,68.0,97,89,70,0.00,40.00,14,8,28,0.05
2013-5-30,83.0,76.6,71.0,75.0,71.4,68.0,97,84,67,0.00,40.00,19,11,32,0.02
2013-5-31,84.0,77.2,74.0,75.0,73.3,72.0,97,89,70,0.00,40.00,14,8,22,0.02
2013-6-1,86.0,76.9,73.0,77.0,74.0,72.0,98,92,68,0.00,40.00,11,6,22,0.02
2013-6-2,88.0,77.9,72.0,77.0,71.9,-99.9,99,87,58,0.00,40.00,12,4,23,0.01
2013-6-3,88.0,79.4,73.0,76.0,73.4,71.0,99,84,57,0.00,40.00,11,5,17,0.36
2013-6-4,86.0,79.1,75.0,76.0,74.0,70.0,98,86,59,0.00,40.00,10,4,16,0.09
2013-6-5,84.0,79.6,77.0,77.0,75.8,74.0,95,89,72,0.00,40.00,9,6,15,0.19
2013-6-6,88.0,79.2,74.0,78.0,74.2,69.0,98,86,64,0.00,40.00,21,11,47,2.94
2013-6-7,87.0,77.1,74.0,77.0,74.1,72.0,98,91,65,0.00,40.00,12,6,20,1.84
2013-6-8,83.0,76.7,74.0,79.0,75.1,73.0,99,95,83,0.00,40.00,10,4,19,0.99
2013-6-9,88.0,81.5,76.0,76.0,73.7,70.0,98,79,58,0.00,40.00,13,8,22,0.08
2013-6-10,89.0,83.3,78.0,77.0,74.2,72.0,93,76,59,0.00,40.00,12,8,18,0.00
2013-6-11,88.0,82.8,79.0,78.0,75.5,71.0,95,80,59,0.00,40.00,13,6,23,0.13
2013-6-12,89.0,80.6,77.0,78.0,75.3,67.0,96,85,60,0.00,40.00,15,3,23,0.13
2013-6-13,86.0,78.5,74.0,77.0,74.1,71.0,98,87,65,0.00,40.00,9,3,26,0.99
2013-6-14,92.0,80.9,75.0,76.0,73.4,68.0,98,80,46,0.00,40.00,9,5,24,0.03
2013-6-15,91.0,82.7,75.0,76.0,73.0,69.0,98,75,49,0.00,40.00,10,4,14,0.01
2013-6-16,91.0,84.2,78.0,77.0,74.2,70.0,95,74,50,0.00,40.00,10,6,17,0.00
2013-6-17,92.0,84.2,79.0,78.0,74.5,70.0,94,74,50,0.00,40.00,11,5,19,0.00
2013-6-18,92.0,85.0,79.0,79.0,74.4,68.0,96,73,47,0.00,40.00,11,5,19,0.00
2013-6-19,90.0,82.5,76.0,77.0,74.1,69.0,94,77,53,0.00,40.00,10,5,20,0.00
2013-6-20,92.0,82.5,75.0,75.0,72.1,69.0,94,74,48,0.00,40.00,10,5,15,0.00
2013-6-22,91.0,87.1,79.0,75.0,70.3,68.0,88,59,47,0.00,40.00,11,8,18,0.02
2013-6-23,90.0,82.5,77.0,76.0,72.7,69.0,93,74,52,0.00,40.00,12,7,27,0.02
2013-6-24,90.0,82.5,76.0,76.0,72.1,69.0,96,73,53,0.00,40.00,13,7,20,0.00
2013-6-25,89.0,81.9,76.0,76.0,73.7,71.0,95,78,59,0.00,40.00,13,6,20,0.00
2013-6-26,91.0,82.2,76.0,77.0,73.9,70.0,97,78,52,0.00,40.00,11,5,19,0.00
2013-6-27,89.0,81.4,77.0,78.0,74.9,70.0,97,83,53,0.00,40.00,9,3,19,0.01
2013-6-28,93.0,81.5,74.0,78.0,73.2,68.0,98,79,45,0.00,40.00,10,4,20,0.03
2013-6-29,93.0,79.8,75.0,78.0,74.3,70.0,98,85,48,0.00,40.00,10,4,20,0.79
2013-6-30,87.0,78.9,75.0,77.0,74.3,70.0,97,87,63,0.00,40.00,14,6,34,1.68
2013-7-1,90.0,79.9,75.0,77.0,74.1,69.0,97,84,58,0.00,40.00,15,6,31,1.23
2013-7-2,86.0,79.3,75.0,78.0,75.3,73.0,97,88,69,0.00,40.00,10,4,22,0.48
2013-7-3,88.0,81.2,76.0,76.0,74.1,71.0,97,81,59,0.00,40.00,17,8,27,0.03
2013-7-4,89.0,81.9,74.0,76.0,72.9,70.0,97,76,54,0.00,40.00,17,9,25,0.15
2013-7-5,85.0,79.3,74.0,76.0,74.2,72.0,96,85,71,0.00,40.00,15,7,28,0.44
2013-7-6,89.0,81.6,76.0,76.0,73.3,70.0,95,78,54,0.00,40.00,17,8,26,0.01
2013-7-7,90.0,83.0,77.0,76.0,73.4,69.0,94,75,53,0.00,40.00,16,8,23,0.00
2013-7-8,90.0,81.9,76.0,76.0,72.6,65.0,95,76,45,0.00,40.00,11,6,21,0.00
2013-7-9,87.0,79.8,75.0,76.0,72.6,68.0,97,80,58,0.00,40.00,10,5,21,0.13
2013-7-10,86.0,77.8,73.0,75.0,73.2,71.0,96,87,64,0.00,40.00,10,4,16,0.59
2013-7-11,92.0,79.9,75.0,77.0,74.4,70.0,98,86,52,0.00,40.00,8,3,14,1.06
2013-7-12,90.0,79.5,74.0,78.0,73.4,70.0,98,84,55,0.00,40.00,10,4,16,0.10
2013-7-13,88.0,76.6,73.0,75.0,73.1,69.0,97,90,60,0.00,40.00,14,5,28,1.74
2013-7-14,88.0,76.9,71.0,75.0,71.9,69.0,98,86,54,0.00,40.00,9,5,31,4.68
2013-7-15,88.0,77.5,73.0,74.0,71.9,69.0,98,85,53,0.00,40.00,9,4,19,0.68
2013-7-16,84.0,80.2,76.0,72.0,69.2,67.0,86,70,56,0.00,40.00,14,10,26,0.04
2013-7-17,81.0,76.3,73.0,75.0,73.0,71.0,97,90,71,0.00,40.00,10,5,16,0.35
2013-7-18,86.0,77.7,73.0,74.0,71.9,70.0,96,84,62,0.00,40.00,11,6,26,0.18
2013-7-19,88.0,80.5,73.0,78.0,73.9,71.0,95,82,60,0.00,40.00,11,6,18,0.02
2013-7-20,88.0,81.3,76.0,78.0,75.5,70.0,97,84,57,0.00,40.00,13,5,19,0.00
2013-7-21,89.0,81.1,77.0,78.0,74.8,68.0,97,82,59,0.00,40.00,11,4,26,0.16
2013-7-22,92.0,83.1,76.0,78.0,74.0,69.0,97,76,49,0.00,40.00,8,5,15,0.16
2013-7-23,94.0,84.8,78.0,78.0,73.8,68.0,95,73,44,0.00,40.00,8,4,13,0.00
2013-7-24,93.0,83.5,77.0,77.0,72.7,67.0,96,72,48,0.00,40.00,12,6,19,0.00
2013-7-25,91.0,82.7,76.0,77.0,74.4,72.0,96,78,56,0.00,40.00,10,6,18,0.00
2013-7-26,91.0,81.5,76.0,78.0,74.6,71.0,95,81,55,0.00,40.00,10,6,17,0.01
2013-7-27,90.0,79.1,74.0,77.0,75.4,73.0,97,90,59,0.00,40.00,6,4,28,2.98
2013-7-28,87.0,79.6,76.0,79.0,75.3,72.0,97,87,65,0.00,40.00,10,4,15,0.07
2013-7-29,92.0,80.9,76.0,78.0,74.6,71.0,98,83,52,0.00,40.00,10,4,18,0.01
2013-7-30,91.0,83.1,76.0,78.0,75.1,72.0,97,78,55,0.00,40.00,12,6,20,0.68
2013-7-31,91.0,84.2,78.0,78.0,75.0,71.0,97,76,52,0.00,40.00,13,7,22,0.20
2013-8-1,90.0,82.5,77.0,77.0,73.8,70.0,95,77,52,0.00,40.00,12,6,20,0.00
2013-8-2,90.0,80.9,74.0,76.0,73.5,68.0,97,80,50,0.00,40.00,14,5,25,0.00
2013-8-3,86.0,79.0,75.0,78.0,75.6,72.0,97,90,71,0.00,40.00,8,3,14,0.66
2013-8-4,93.0,81.7,77.0,79.0,75.3,71.0,97,83,52,0.00,40.00,8,3,23,0.02
2013-8-5,89.0,80.3,76.0,80.0,75.5,72.0,98,87,65,0.00,40.00,12,5,25,0.05
2013-8-6,93.0,81.4,76.0,78.0,75.2,73.0,99,84,54,0.00,40.00,11,3,17,0.21
2013-8-7,89.0,81.4,76.0,80.0,75.6,73.0,99,84,60,0.00,40.00,11,4,17,0.85
2013-8-8,91.0,83.8,78.0,77.0,74.3,71.0,95,75,52,0.00,40.00,13,8,23,0.06
2013-8-9,88.0,81.8,77.0,77.0,73.2,68.0,95,77,54,0.00,40.00,16,7,24,0.01
2013-8-10,92.0,84.2,77.0,77.0,73.5,69.0,95,73,48,0.00,40.00,13,8,20,0.01
2013-8-11,92.0,84.1,78.0,77.0,74.6,71.0,95,75,53,0.00,40.00,11,6,18,0.00
2013-8-12,92.0,82.8,77.0,78.0,74.3,68.0,97,78,47,0.00,40.00,11,5,17,0.00
2013-8-13,93.0,84.2,78.0,79.0,74.4,69.0,97,76,47,0.00,40.00,10,5,18,0.00
2013-8-14,93.0,82.1,75.0,79.0,72.3,-99.9,97,77,46,0.00,40.00,12,5,19,0.00
2013-8-15,88.0,75.8,76.0,78.0,63.5,-99.9,96,81,61,0.00,40.00,8,4,12,0.00
2013-8-16,93.0,83.8,77.0,79.0,74.1,-99.9,96,76,52,0.00,40.00,11,5,20,0.00
2013-8-17,93.0,84.8,79.0,79.0,76.5,73.0,96,78,53,0.00,40.00,12,6,20,0.00
2013-8-18,91.0,83.4,78.0,78.0,74.2,-99.9,96,77,56,0.00,40.00,13,7,29,0.04
2013-8-19,92.0,81.3,76.0,77.0,66.5,-99.9,96,75,53,0.00,40.00,13,8,21,0.04
2013-8-20,91.0,82.2,76.0,77.0,72.4,-99.9,98,76,49,0.00,40.00,13,7,21,0.00
2013-8-21,90.0,82.3,77.0,78.0,76.0,74.0,96,83,60,0.00,40.00,15,7,25,0.07
2013-8-22,92.0,83.5,76.0,79.0,74.9,72.0,96,77,56,0.00,40.00,14,7,22,0.17
2013-8-23,92.0,81.3,77.0,79.0,75.8,72.0,97,85,52,0.00,40.00,9,3,19,0.02
2013-8-24,93.0,82.2,74.0,78.0,74.3,71.0,97,79,49,0.00,40.00,11,4,18,0.46
2013-8-25,89.0,78.6,74.0,75.0,71.6,-99.9,97,82,56,0.00,40.00,11,5,19,1.13
2013-8-26,90.0,79.3,73.0,76.0,74.0,71.0,98,86,56,0.00,40.00,11,4,20,0.01
2013-8-27,86.0,77.3,72.0,75.0,72.9,71.0,99,88,66,0.00,40.00,8,4,21,0.16
2013-8-28,87.0,80.8,74.0,75.0,73.0,72.0,96,78,64,0.00,40.00,8,5,14,1.00
2013-8-29,90.0,80.8,73.0,76.0,73.1,69.0,99,80,51,0.00,40.00,10,4,16,0.38
2013-8-30,92.0,81.9,75.0,79.0,73.4,67.0,98,78,44,0.00,40.00,10,4,16,0.00
2013-8-31,93.0,80.2,74.0,76.0,73.0,68.0,96,82,46,0.00,40.00,15,4,23,0.08
2013-9-1,92.0,79.7,75.0,77.0,72.8,-99.9,98,84,50,0.00,40.00,11,3,18,0.02
2013-9-2,94.0,79.0,74.0,79.0,74.1,69.0,99,87,45,0.00,40.00,15,2,28,0.41
2013-9-3,93.0,79.1,74.0,77.0,73.8,71.0,99,86,49,0.00,40.00,8,3,16,0.70
2013-9-4,85.0,80.6,77.0,78.0,76.4,75.0,98,88,73,0.00,40.00,8,4,15,0.02
2013-9-5,92.0,82.5,77.0,78.0,75.3,71.0,98,81,51,0.00,40.00,10,5,18,0.01
2013-9-6,94.0,83.8,77.0,79.0,75.3,71.0,97,78,49,0.00,40.00,9,4,15,0.00
2013-9-7,89.0,78.2,74.0,77.0,74.0,71.0,97,88,64,0.00,40.00,12,4,18,0.60
2013-9-8,90.0,78.7,73.0,76.0,71.8,-99.9,98,83,54,0.00,40.00,14,4,25,0.03
2013-9-9,89.0,80.7,74.0,77.0,73.5,70.0,99,81,55,0.00,40.00,11,5,20,0.03
2013-9-10,78.0,76.5,76.0,74.0,73.8,73.0,95,92,85,0.00,40.00,4,2,10,0.03
2013-9-19,89.0,80.7,76.0,75.0,73.8,72.0,95,81,57,0.00,40.00,9,6,23,0.20
2013-9-20,87.0,80.1,73.0,76.0,70.3,63.0,97,75,45,0.00,40.00,12,6,18,0.03
2013-9-21,90.0,80.8,74.0,75.0,71.4,67.0,96,76,47,0.00,40.00,8,4,17,0.00
2013-9-22,92.0,81.3,75.0,78.0,71.9,-99.9,97,77,47,0.00,40.00,10,5,18,0.00
2013-9-23,86.0,79.9,76.0,79.0,75.6,73.0,98,88,66,0.00,40.00,9,4,21,0.04
2013-9-24,89.0,79.8,74.0,79.0,74.6,72.0,96,85,63,0.00,40.00,9,5,28,0.38
2013-9-25,87.0,79.0,74.0,77.0,73.5,70.0,98,85,57,0.00,40.00,14,5,22,0.07
2013-9-26,89.0,79.4,75.0,79.0,76.1,74.0,99,90,65,0.00,40.00,13,6,29,0.47
2013-9-27,89.0,79.6,73.0,76.0,71.9,66.0,98,80,47,0.00,40.00,11,6,21,0.01
2013-9-28,87.0,79.1,73.0,74.0,71.3,68.0,98,79,54,0.00,40.00,13,6,31,0.44
2013-9-29,89.0,78.7,70.0,75.0,68.4,-99.9,98,75,48,0.00,40.00,11,5,16,0.44
2013-9-30,89.0,80.6,74.0,75.0,71.3,66.0,99,76,49,0.00,40.00,10,4,17,0.00
2013-10-1,81.0,79.2,78.0,73.0,71.1,70.0,86,77,69,0.00,40.00,10,7,18,0.00
2013-10-2,88.0,81.1,76.0,74.0,71.6,69.0,90,74,54,0.00,40.00,13,8,22,0.00
2013-10-3,88.0,81.2,76.0,75.0,72.8,70.0,93,77,58,0.00,40.00,10,6,17,0.00
2013-10-4,89.0,81.3,75.0,75.0,71.0,65.0,96,74,47,0.00,40.00,9,5,15,0.00
2013-10-5,89.0,79.9,71.0,75.0,70.8,65.0,99,77,46,0.00,40.00,10,5,16,0.00
2013-10-6,92.0,80.3,72.0,76.0,72.1,67.0,100,79,45,0.00,40.00,8,4,14,0.01
2013-10-7,89.0,77.9,74.0,77.0,72.9,70.0,99,87,53,0.00,40.00,10,5,18,0.59
2013-10-8,90.0,80.1,73.0,78.0,72.5,69.0,99,80,54,0.00,40.00,10,6,18,0.24
2013-10-9,84.0,76.4,71.0,76.0,72.2,69.0,98,88,67,0.00,40.00,9,6,17,0.02
2013-10-10,87.0,77.7,69.0,72.0,69.8,67.0,99,79,53,0.00,40.00,11,6,18,0.01
2013-10-11,74.0,72.5,71.0,72.0,70.8,70.0,96,95,93,0.00,40.00,4,3,7,0.00
2013-10-12,88.0,79.9,70.0,73.0,67.0,62.0,99,68,43,0.00,40.00,7,4,17,0.00
2013-10-13,86.0,74.9,70.0,73.0,65.5,-99.9,99,79,43,0.00,40.00,9,4,16,0.00
2013-10-22,91.0,84.5,76.0,74.0,72.8,71.0,94,70,54,0.00,40.00,10,7,17,0.00
2013-10-23,85.0,78.0,73.0,75.0,72.1,68.0,99,83,62,0.00,40.00,10,5,18,0.00
2013-10-24,79.0,73.8,70.0,71.0,63.2,59.0,92,70,57,0.00,40.00,11,8,21,0.00
2013-10-25,81.0,72.3,65.0,66.0,62.3,59.0,91,73,48,0.00,40.00,14,8,22,0.00
2013-10-26,84.0,72.9,64.0,65.0,62.3,59.0,95,72,44,0.00,40.00,8,5,16,0.00
2013-10-27,83.0,71.2,63.0,66.0,61.3,-99.9,96,74,48,0.00,40.00,10,5,15,0.00
2013-10-28,85.0,73.0,65.0,69.0,62.7,-99.9,98,77,41,0.00,40.00,10,5,17,0.00
2013-10-29,85.0,74.4,66.0,69.0,66.1,62.0,100,78,51,0.00,40.00,13,6,23,0.00
2013-10-30,84.0,75.1,67.0,70.0,66.0,62.0,100,76,47,0.00,40.00,13,7,22,0.00
2013-10-31,86.0,76.7,70.0,72.0,68.7,66.0,97,78,53,0.00,40.00,12,6,21,0.00
2013-11-1,88.0,77.9,70.0,77.0,71.7,70.0,100,83,55,0.00,40.00,11,4,15,0.00
2013-11-2,89.0,76.6,69.0,76.0,69.2,62.0,100,81,42,0.00,40.00,12,5,23,0.00
2013-11-3,81.0,71.1,65.0,64.0,57.8,-99.9,88,66,48,0.00,40.00,15,10,25,0.00
2013-11-4,79.0,74.4,66.0,66.0,62.2,57.0,78,66,53,0.00,40.00,16,10,28,0.00
2013-11-5,82.0,77.4,73.0,69.0,66.1,62.0,77,69,57,0.00,40.00,18,12,30,0.00
2013-11-6,84.0,77.2,70.0,69.0,66.9,64.0,96,72,53,0.00,40.00,13,8,24,0.00
2013-11-7,85.0,75.0,68.0,72.0,68.8,67.0,100,83,55,0.00,40.00,9,5,14,0.00
2013-11-8,83.0,73.1,67.0,73.0,69.6,67.0,99,90,64,0.00,40.00,15,7,24,0.26
2013-11-9,78.0,74.3,73.0,73.0,69.3,-99.9,97,86,76,0.00,40.00,15,6,25,0.39
2013-11-10,84.0,76.9,71.0,71.0,69.4,65.0,95,79,56,0.00,40.00,11,7,17,0.03
2013-11-11,84.0,74.7,68.0,70.0,68.0,66.0,99,82,57,0.00,40.00,12,6,19,0.00
2013-11-12,84.0,74.9,67.0,70.0,67.1,62.0,99,79,50,0.00,40.00,8,4,24,0.00
2013-11-13,74.0,70.2,67.0,69.0,61.0,52.0,92,74,58,0.00,40.00,17,9,30,0.00
2013-11-14,77.0,69.4,63.0,59.0,55.8,52.0,82,63,48,0.00,40.00,18,6,26,0.00
2013-11-15,79.0,73.3,66.0,67.0,64.5,58.0,86,74,63,0.00,40.00,13,8,22,0.00
2013-11-16,77.0,71.6,70.0,72.0,66.8,-99.9,97,87,70,0.00,40.00,11,4,18,0.13
2013-11-17,86.0,75.3,69.0,74.0,69.4,66.0,99,84,58,0.00,40.00,12,6,19,0.07
2013-11-18,84.0,74.8,68.0,73.0,69.9,68.0,100,86,59,0.00,40.00,5,3,12,0.00
2013-11-19,83.0,74.5,70.0,72.0,70.3,68.0,100,88,62,0.00,40.00,7,4,18,0.00
2013-11-20,87.0,74.9,66.0,74.0,69.9,66.0,100,87,54,0.00,40.00,9,4,13,0.24
2013-11-21,83.0,75.3,71.0,74.0,71.8,69.0,100,90,63,0.00,40.00,12,5,19,0.26
2013-11-22,83.0,76.1,70.0,71.0,68.8,66.0,98,79,58,0.00,40.00,14,8,23,0.05
2013-11-23,83.0,73.9,68.0,72.0,68.0,-99.9,100,85,63,0.00,40.00,11,5,18,0.00
2013-11-24,81.0,72.6,67.0,70.0,67.0,64.0,100,84,60,0.00,40.00,15,7,26,0.06
2013-11-25,76.0,72.2,69.0,68.0,63.3,59.0,83,74,63,0.00,40.00,17,13,26,0.02
2013-11-26,84.0,76.1,71.0,74.0,71.3,68.0,100,86,66,0.00,40.00,15,10,25,0.14
2013-11-27,77.0,70.6,57.0,75.0,64.5,52.0,100,82,55,0.00,40.00,17,10,28,0.63
2013-11-28,74.0,59.6,46.0,58.0,51.1,43.0,91,75,51,0.00,40.00,17,11,29,0.03
2013-11-29,77.0,67.5,55.0,62.0,58.0,54.0,98,74,50,0.00,40.00,15,9,24,0.00
2013-11-30,76.0,66.6,59.0,70.0,60.5,-99.9,100,84,61,0.00,40.00,16,10,23,0.11
2013-12-1,80.0,67.5,59.0,70.0,65.3,59.0,100,94,71,0.00,40.00,12,6,20,0.21
2013-12-2,73.0,66.6,60.0,67.0,63.8,60.0,100,91,68,0.00,40.00,12,6,19,0.01
2013-12-3,79.0,68.3,59.0,66.0,62.5,59.0,100,84,52,0.00,40.00,7,3,11,0.01
2013-12-4,83.0,71.5,64.0,69.0,65.3,63.0,100,83,56,0.00,40.00,10,4,14,0.00
2013-12-5,85.0,73.1,64.0,70.0,67.6,64.0,100,85,56,0.00,40.00,11,5,17,0.00
2013-12-6,85.0,74.9,66.0,72.0,67.7,66.0,100,81,55,0.00,40.00,13,7,19,0.00
2013-12-7,84.0,71.5,64.0,72.0,66.2,-99.9,100,87,55,0.00,40.00,8,4,17,0.00
2013-12-8,84.0,74.9,68.0,70.0,67.9,65.0,99,81,56,0.00,40.00,11,6,19,0.01
2013-12-9,85.0,75.4,69.0,70.0,67.0,60.0,98,78,43,0.00,40.00,13,7,19,0.00
2013-12-10,88.0,75.5,67.0,73.0,68.7,66.0,100,82,50,0.00,40.00,9,4,14,0.00
2013-12-11,86.0,73.7,67.0,73.0,69.2,66.0,100,88,53,0.00,40.00,10,5,15,0.00
2013-12-12,77.0,69.0,61.0,71.0,65.0,57.0,100,88,60,0.00,40.00,16,7,23,0.00
2013-12-13,79.0,73.2,60.0,66.0,62.8,59.0,95,71,57,0.00,40.00,13,9,21,0.00
2013-12-14,83.0,73.6,67.0,71.0,67.1,-99.9,98,83,63,0.00,40.00,13,7,20,0.02
2013-12-15,81.0,73.3,68.0,75.0,70.4,66.0,100,91,73,0.00,40.00,13,6,21,0.01
2013-12-16,74.0,66.5,58.0,66.0,59.7,56.0,94,79,61,0.00,40.00,11,8,21,0.00
2013-12-17,79.0,64.8,55.0,61.0,57.5,54.0,98,80,51,0.00,40.00,11,8,22,0.00
2013-12-18,76.0,63.7,56.0,59.0,55.1,50.0,100,77,45,0.00,40.00,11,6,18,0.00
2013-12-19,78.0,66.0,55.0,61.0,56.7,53.0,96,75,49,0.00,40.00,13,6,18,0.00
2013-12-20,82.0,75.6,62.0,68.0,65.9,61.0,96,73,58,0.00,40.00,12,8,20,0.00
2013-12-21,84.0,76.9,70.0,73.0,67.6,-99.9,99,77,61,0.00,40.00,14,9,23,0.00
2013-12-22,85.0,76.1,71.0,72.0,69.8,67.0,99,83,55,0.00,40.00,15,7,22,0.00
2013-12-23,86.0,75.9,69.0,74.0,70.1,68.0,100,84,56,0.00,40.00,11,6,19,0.00
2013-12-24,82.0,69.4,64.0,73.0,65.2,57.0,100,87,71,0.00,40.00,14,5,22,0.04
2013-12-25,78.0,71.6,64.0,66.0,64.0,61.0,97,78,61,0.00,40.00,15,8,24,0.03
2013-12-26,79.0,71.5,67.0,69.0,67.2,65.0,98,87,68,0.00,40.00,12,4,18,0.00
2013-12-27,83.0,72.9,66.0,71.0,67.8,66.0,100,85,61,0.00,40.00,12,6,20,0.00
2013-12-28,80.0,73.3,68.0,72.0,67.9,-99.9,97,85,71,0.00,40.00,14,7,21,0.00
2013-12-29,81.0,74.6,70.0,73.0,71.6,70.0,100,91,76,0.00,40.00,15,7,27,0.00
2013-12-30,77.0,70.8,66.0,71.0,67.6,62.0,100,90,72,0.00,40.00,10,4,16,0.00
2013-12-31,80.0,70.6,64.0,65.0,61.8,58.0,88,75,57,0.00,40.00,13,9,21,0.00
2014-1-1,82.0,74.7,70.0,71.0,67.9,63.0,98,80,69,0.00,40.00,15,8,20,0.00
2014-1-2,85.0,73.8,67.0,71.0,67.5,63.0,100,83,54,0.00,40.00,16,7,25,0.01